sensor_id;sensor_type;location;lat;lon;timestamp;P1;durP1;ratioP1;P2;durP2;ratioP2
6862;SDS011;3470;48.738;9.616;2024-01-10T13:34:10;21.70;;;17.00;;
6862;SDS011;3470;48.738;9.616;2024-01-10T13:36:36;21.55;;;17.33;;
6862;SDS011;3470;48.738;9.616;2024-01-10T13:39:01;22.65;;;17.45;;
6862;SDS011;3470;48.738;9.616;2024-01-10T13:41:28;22.38;;;17.83;;
6862;SDS011;3470;48.738;9.616;2024-01-10T13:43:54;24.00;;;17.30;;
6862;SDS011;3470;48.738;9.616;2024-01-10T13:46:19;20.65;;;17.05;;
6862;SDS011;3470;48.738;9.616;2024-01-10T13:48:45;22.83;;;17.48;;
6862;SDS011;3470;48.738;9.616;2024-01-10T13:51:10;22.17;;;17.48;;
6862;SDS011;3470;48.738;9.616;2024-01-10T13:53:36;22.63;;;18.27;;
6862;SDS011;3470;48.738;9.616;2024-01-10T13:56:02;21.67;;;17.73;;
6862;SDS011;3470;48.738;9.616;2024-01-10T13:58:27;20.15;;;17.00;;
6862;SDS011;3470;48.738;9.616;2024-01-10T18:19:26;37.67;;;20.27;;
6862;SDS011;3470;48.738;9.616;2024-01-10T18:21:52;38.10;;;21.53;;
6862;SDS011;3470;48.738;9.616;2024-01-10T18:24:17;40.63;;;21.97;;
6862;SDS011;3470;48.738;9.616;2024-01-10T18:26:43;41.67;;;23.07;;
6862;SDS011;3470;48.738;9.616;2024-01-10T18:29:08;44.33;;;23.47;;
6862;SDS011;3470;48.738;9.616;2024-01-10T18:31:34;47.20;;;24.83;;
6862;SDS011;3470;48.738;9.616;2024-01-10T18:34:00;46.13;;;24.93;;
6862;SDS011;3470;48.738;9.616;2024-01-10T18:36:26;46.03;;;24.30;;
6862;SDS011;3470;48.738;9.616;2024-01-10T18:38:52;43.83;;;24.30;;
6862;SDS011;3470;48.738;9.616;2024-01-10T18:41:17;42.97;;;24.53;;
6862;SDS011;3470;48.738;9.616;2024-01-10T18:43:43;44.30;;;23.93;;
6862;SDS011;3470;48.738;9.616;2024-01-10T18:46:08;44.80;;;24.03;;
6862;SDS011;3470;48.738;9.616;2024-01-10T18:48:36;46.27;;;25.47;;
6862;SDS011;3470;48.738;9.616;2024-01-10T18:51:01;52.87;;;26.13;;
6862;SDS011;3470;48.738;9.616;2024-01-10T18:53:27;46.37;;;25.87;;
6862;SDS011;3470;48.738;9.616;2024-01-10T18:55:54;45.17;;;24.70;;
6862;SDS011;3470;48.738;9.616;2024-01-10T18:58:20;45.33;;;24.50;;
6862;SDS011;3470;48.738;9.616;2024-01-10T19:00:45;45.10;;;25.23;;
6862;SDS011;3470;48.738;9.616;2024-01-10T19:03:11;44.73;;;25.87;;
6862;SDS011;3470;48.738;9.616;2024-01-10T19:05:36;46.97;;;27.10;;
6862;SDS011;3470;48.738;9.616;2024-01-10T19:08:02;50.53;;;27.50;;
6862;SDS011;3470;48.738;9.616;2024-01-10T19:10:28;50.03;;;27.23;;
6862;SDS011;3470;48.738;9.616;2024-01-10T19:12:54;46.20;;;28.40;;
6862;SDS011;3470;48.738;9.616;2024-01-10T19:15:20;52.73;;;29.40;;
6862;SDS011;3470;48.738;9.616;2024-01-10T19:17:45;49.43;;;27.27;;
6862;SDS011;3470;48.738;9.616;2024-01-10T19:20:11;50.50;;;27.03;;
6862;SDS011;3470;48.738;9.616;2024-01-10T19:22:37;53.10;;;28.40;;
6862;SDS011;3470;48.738;9.616;2024-01-10T19:25:02;45.97;;;27.50;;
6862;SDS011;3470;48.738;9.616;2024-01-10T19:27:29;51.37;;;27.57;;
6862;SDS011;3470;48.738;9.616;2024-01-10T19:29:55;49.53;;;28.53;;
6862;SDS011;3470;48.738;9.616;2024-01-10T19:32:20;53.47;;;27.13;;
6862;SDS011;3470;48.738;9.616;2024-01-10T19:34:46;53.97;;;28.87;;
6862;SDS011;3470;48.738;9.616;2024-01-10T19:37:12;50.67;;;28.23;;
6862;SDS011;3470;48.738;9.616;2024-01-10T19:39:38;55.10;;;29.57;;
6862;SDS011;3470;48.738;9.616;2024-01-10T19:42:06;56.17;;;29.50;;
6862;SDS011;3470;48.738;9.616;2024-01-10T19:44:31;54.37;;;28.97;;
6862;SDS011;3470;48.738;9.616;2024-01-10T19:46:57;56.67;;;30.97;;
6862;SDS011;3470;48.738;9.616;2024-01-10T19:49:22;53.23;;;29.93;;
6862;SDS011;3470;48.738;9.616;2024-01-10T19:51:48;56.13;;;29.37;;
6862;SDS011;3470;48.738;9.616;2024-01-10T19:54:14;50.47;;;28.97;;
6862;SDS011;3470;48.738;9.616;2024-01-10T19:56:40;53.83;;;30.63;;
6862;SDS011;3470;48.738;9.616;2024-01-10T19:59:05;56.80;;;30.67;;
6862;SDS011;3470;48.738;9.616;2024-01-10T20:01:31;56.07;;;29.43;;
6862;SDS011;3470;48.738;9.616;2024-01-10T20:03:57;52.40;;;29.43;;
6862;SDS011;3470;48.738;9.616;2024-01-10T20:06:22;59.63;;;30.13;;
6862;SDS011;3470;48.738;9.616;2024-01-10T20:08:48;57.20;;;30.90;;
6862;SDS011;3470;48.738;9.616;2024-01-10T20:11:14;57.47;;;30.13;;
6862;SDS011;3470;48.738;9.616;2024-01-10T20:13:39;58.63;;;30.93;;
6862;SDS011;3470;48.738;9.616;2024-01-10T20:16:06;54.33;;;30.07;;
6862;SDS011;3470;48.738;9.616;2024-01-10T20:18:32;59.17;;;31.03;;
6862;SDS011;3470;48.738;9.616;2024-01-10T20:20:58;56.50;;;31.27;;
6862;SDS011;3470;48.738;9.616;2024-01-10T20:23:24;60.87;;;30.00;;
6862;SDS011;3470;48.738;9.616;2024-01-10T20:25:50;56.63;;;30.47;;
6862;SDS011;3470;48.738;9.616;2024-01-10T20:28:16;68.80;;;32.20;;
6862;SDS011;3470;48.738;9.616;2024-01-10T20:30:44;52.63;;;29.93;;
6862;SDS011;3470;48.738;9.616;2024-01-10T20:33:10;60.70;;;31.17;;
6862;SDS011;3470;48.738;9.616;2024-01-10T20:35:35;60.77;;;29.27;;
6862;SDS011;3470;48.738;9.616;2024-01-10T20:38:01;61.63;;;31.47;;
6862;SDS011;3470;48.738;9.616;2024-01-10T20:40:27;61.67;;;30.37;;
6862;SDS011;3470;48.738;9.616;2024-01-10T20:42:52;57.37;;;29.90;;
6862;SDS011;3470;48.738;9.616;2024-01-10T20:45:18;66.23;;;32.47;;
6862;SDS011;3470;48.738;9.616;2024-01-10T20:47:44;62.07;;;31.87;;
6862;SDS011;3470;48.738;9.616;2024-01-10T20:50:10;65.53;;;32.87;;
6862;SDS011;3470;48.738;9.616;2024-01-10T20:52:36;57.67;;;30.80;;
6862;SDS011;3470;48.738;9.616;2024-01-10T20:55:02;60.87;;;31.60;;
6862;SDS011;3470;48.738;9.616;2024-01-10T20:57:28;58.83;;;31.73;;
6862;SDS011;3470;48.738;9.616;2024-01-10T20:59:54;56.43;;;30.33;;
6862;SDS011;3470;48.738;9.616;2024-01-10T21:02:23;57.07;;;31.43;;
6862;SDS011;3470;48.738;9.616;2024-01-10T21:04:49;59.00;;;31.10;;
6862;SDS011;3470;48.738;9.616;2024-01-10T21:10:05;59.90;;;30.87;;
6862;SDS011;3470;48.738;9.616;2024-01-10T21:12:31;53.83;;;29.43;;
6862;SDS011;3470;48.738;9.616;2024-01-10T21:14:57;58.37;;;30.73;;
6862;SDS011;3470;48.738;9.616;2024-01-10T21:17:23;60.90;;;30.40;;
6862;SDS011;3470;48.738;9.616;2024-01-10T21:19:50;58.93;;;30.50;;
